Time;durP1;ratioP1;P1;durP2;ratioP2;P2;SDS_P1;SDS_P2;PMS_P1;PMS_P2;Temp;Humidity;BMP_temperature;BMP_pressure;BME280_temperature;BME280_humidity;BME280_pressure;Samples;Min_cycle;Max_cycle;Signal;HPM_P1;HPM_P2
2021/07/20 00:01:07;;;;;;;12.10;10.35;;;;;;;28.79;35.98;96832.41;5004753;28;20056;-31
2021/07/20 00:03:32;;;;;;;13.68;10.40;;;;;;;28.79;35.87;96837.69;4996621;28;20029;-32
2021/07/20 00:05:58;;;;;;;20.70;10.13;;;;;;;28.79;35.85;96835.91;5008440;28;20029;-31
2021/07/20 00:08:23;;;;;;;13.52;10.90;;;;;;;28.80;35.95;96836.78;5002990;28;20115;-32
2021/07/20 00:10:50;;;;;;;13.50;10.35;;;;;;;28.80;35.85;96839.41;5000231;28;20612;-31
2021/07/20 00:13:18;;;;;;;14.10;11.25;;;;;;;28.81;35.99;96841.09;5006584;28;20033;-32
2021/07/20 00:15:44;;;;;;;13.00;10.10;;;;;;;28.81;35.91;96841.09;5006633;28;20113;-30
2021/07/20 00:18:14;;;;;;;14.02;10.50;;;;;;;28.82;35.91;96837.50;5006519;28;20026;-31
2021/07/20 00:20:39;;;;;;;14.75;10.50;;;;;;;28.82;35.78;96840.13;5008514;28;20404;-33
2021/07/20 00:23:05;;;;;;;13.05;10.10;;;;;;;28.81;35.83;96838.47;5007424;28;20036;-32
2021/07/20 00:25:30;;;;;;;11.93;10.20;;;;;;;28.81;35.89;96838.47;5003788;28;20034;-34
2021/07/20 00:27:57;;;;;;;15.23;10.65;;;;;;;28.81;36.01;96839.31;5007009;28;20662;-33
2021/07/20 00:57:18;;;;;;;13.40;10.70;;;;;;;28.76;36.03;96830.84;4997476;28;20036;-31
2021/07/20 00:59:43;;;;;;;11.75;10.05;;;;;;;28.76;36.07;96832.66;4989686;28;20030;-31
2021/07/20 01:02:08;;;;;;;13.05;10.25;;;;;;;28.77;35.96;96834.31;5002586;28;20531;-31
2021/07/20 01:04:34;;;;;;;12.35;10.15;;;;;;;28.77;36.09;96834.31;5004945;28;20042;-32
2021/07/20 03:27:31;;;;;;;11.30;9.65;;;;;;;28.67;35.98;96803.28;4992835;28;20121;-32
2021/07/20 03:29:59;;;;;;;12.55;9.77;;;;;;;28.68;35.92;96804.97;5007110;28;20166;-31
2021/07/20 03:32:26;;;;;;;11.52;10.10;;;;;;;28.69;35.93;96813.72;5002372;28;20038;-30
2021/07/20 03:34:51;;;;;;;13.25;10.32;;;;;;;28.68;35.65;96815.50;5003856;28;20559;-34
2021/07/20 03:37:16;;;;;;;13.57;9.68;;;;;;;28.69;35.95;96817.19;5000268;28;20079;-31
2021/07/20 03:39:42;;;;;;;10.43;9.25;;;;;;;28.69;35.96;96811.94;5000455;28;20025;-31
2021/07/20 03:42:07;;;;;;;12.70;10.25;;;;;;;28.71;35.70;96818.91;4990945;28;20025;-33
2021/07/20 03:44:33;;;;;;;13.20;9.85;;;;;;;28.71;35.71;96813.63;4998347;28;21423;-31
2021/07/20 03:46:59;;;;;;;11.00;9.52;;;;;;;28.72;35.86;96824.06;5004318;28;20141;-31
2021/07/20 03:49:25;;;;;;;10.80;9.10;;;;;;;28.72;35.86;96813.50;5003036;28;20026;-31
2021/07/20 03:51:51;;;;;;;10.60;9.50;;;;;;;28.73;35.73;96822.28;5003080;28;20404;-32
2021/07/20 03:54:16;;;;;;;11.73;9.65;;;;;;;28.74;35.53;96816.06;4986535;28;20037;-31
2021/07/20 03:56:44;;;;;;;12.10;9.75;;;;;;;28.74;35.86;96824.81;5015108;28;20026;-31
2021/07/20 03:59:09;;;;;;;10.65;8.52;;;;;;;28.74;35.55;96818.69;4990559;28;20033;-30
2021/07/20 04:01:36;;;;;;;13.48;9.15;;;;;;;28.75;35.59;96820.41;5008364;28;20415;-33
2021/07/20 04:04:02;;;;;;;11.48;9.10;;;;;;;28.75;35.81;96828.31;5005555;28;20036;-31
2021/07/20 04:06:27;;;;;;;13.20;9.63;;;;;;;28.75;35.69;96828.31;5005633;28;20029;-32
2021/07/20 04:08:53;;;;;;;10.85;9.38;;;;;;;28.74;35.72;96830.09;4985890;28;20638;-31
2021/07/20 04:11:18;;;;;;;10.90;9.48;;;;;;;28.75;35.80;96830.97;5006194;28;20037;-31
2021/07/20 04:13:43;;;;;;;11.50;9.60;;;;;;;28.74;35.54;96830.09;5005378;28;20032;-32
2021/07/20 04:16:09;;;;;;;10.13;9.05;;;;;;;28.75;35.51;96830.97;4994377;28;20030;-33
2021/07/20 04:18:35;;;;;;;10.35;9.13;;;;;;;28.75;35.54;96831.78;5006506;28;20061;-32
2021/07/20 04:21:02;;;;;;;12.95;9.35;;;;;;;28.75;35.69;96831.78;5004804;28;20022;-32
2021/07/20 04:23:27;;;;;;;11.75;9.40;;;;;;;28.74;35.77;96829.25;5000987;28;20061;-31
2021/07/20 04:25:53;;;;;;;11.95;9.02;;;;;;;28.75;35.65;96836.22;4990925;28;20044;-31
2021/07/20 04:28:19;;;;;;;10.35;9.30;;;;;;;28.74;35.62;96834.50;5005652;28;20520;-32
2021/07/20 04:30:45;;;;;;;13.35;9.90;;;;;;;28.75;35.66;96836.22;4988166;28;20030;-35
2021/07/20 04:33:15;;;;;;;11.13;9.20;;;;;;;28.75;35.79;96847.59;5002974;28;20121;-32
2021/07/20 04:35:40;;;;;;;12.75;9.73;;;;;;;28.75;35.64;96847.59;5002863;28;20025;-31
2021/07/20 04:38:06;;;;;;;11.95;9.32;;;;;;;28.75;35.66;96841.50;4995964;28;20033;-33
2021/07/20 04:40:32;;;;;;;10.02;9.02;;;;;;;28.75;35.69;96846.78;5004407;28;20683;-31
2021/07/20 04:42:58;;;;;;;12.52;9.85;;;;;;;28.75;35.63;96846.78;5003041;28;20028;-33
2021/07/20 04:45:23;;;;;;;11.07;9.85;;;;;;;28.75;35.72;96849.41;5006535;28;20032;-34
2021/07/20 04:47:49;;;;;;;10.90;9.80;;;;;;;28.73;35.78;96843.38;4990652;28;20026;-31
2021/07/20 04:50:14;;;;;;;10.55;9.10;;;;;;;28.74;35.83;96855.59;5006849;28;20490;-32
2021/07/20 04:52:40;;;;;;;10.73;9.63;;;;;;;28.75;35.66;96857.31;5005026;28;20045;-32
2021/07/20 04:55:07;;;;;;;10.32;9.32;;;;;;;28.75;35.81;96857.31;5007240;28;20681;-31
2021/07/20 04:57:33;;;;;;;10.07;8.93;;;;;;;28.77;35.76;96860.69;5005803;28;20037;-31
2021/07/20 05:00:57;;;;;;;15.95;8.90;;;;;;;-148.56;100.00;61375.16;5002146;28;20115;-30
2021/07/20 05:04:21;;;;;;;11.07;9.70;;;;;;;-148.56;100.00;61375.16;5001567;28;20396;-32
2021/07/20 05:06:47;;;;;;;9.95;8.95;;;;;;;28.81;35.66;96868.31;5005976;28;20636;-31
2021/07/20 05:09:13;;;;;;;10.65;9.10;;;;;;;28.77;35.93;96861.56;4997645;28;21772;-31
2021/07/20 05:11:38;;;;;;;10.80;9.05;;;;;;;28.76;35.74;96864.28;5004671;28;20037;-31
2021/07/20 05:14:04;;;;;;;10.10;9.07;;;;;;;28.76;35.85;96864.28;5003454;28;20041;-33
2021/07/20 05:16:30;;;;;;;11.45;9.52;;;;;;;28.76;35.90;96870.38;5003261;28;20030;-34
2021/07/20 05:18:55;;;;;;;9.55;8.57;;;;;;;28.75;36.00;96867.88;5004960;28;20030;-31
2021/07/20 05:21:20;;;;;;;10.20;8.52;;;;;;;28.75;35.77;96868.69;4983996;28;20025;-32
2021/07/20 05:23:46;;;;;;;13.55;9.32;;;;;;;28.75;36.00;96867.88;4990508;28;20099;-31
2021/07/20 05:26:11;;;;;;;10.73;9.15;;;;;;;28.76;35.88;96874.84;5004997;28;20442;-33
2021/07/20 05:28:37;;;;;;;9.68;8.65;;;;;;;28.75;36.14;96873.97;5002391;28;20048;-33
2021/07/20 05:31:02;;;;;;;10.18;9.07;;;;;;;28.76;36.10;96869.56;5000522;28;20045;-30
2021/07/20 05:33:28;;;;;;;9.38;8.30;;;;;;;28.77;36.07;96873.88;5018777;28;20029;-32
2021/07/20 05:36:02;;;;;;;9.77;8.77;;;;;;;28.78;35.93;96878.22;5004417;28;20423;-32
2021/07/20 05:38:29;;;;;;;11.45;8.57;;;;;;;28.79;36.01;96874.63;5002706;28;20040;-32
2021/07/20 05:40:55;;;;;;;10.07;8.82;;;;;;;28.79;36.03;96882.53;5008086;28;20020;-32
2021/07/20 05:43:21;;;;;;;9.55;8.43;;;;;;;28.77;36.04;96876.53;5003980;28;20025;-32
2021/07/20 05:45:46;;;;;;;10.18;8.32;;;;;;;28.79;36.04;96879.88;4992408;28;20080;-31
2021/07/20 05:48:20;;;;;;;10.60;9.10;;;;;;;28.79;36.01;96877.25;5003076;28;20064;-33
2021/07/20 05:50:58;;;;;;;13.93;8.63;;;;;;;28.79;36.02;96879.88;4988548;28;20030;-33
2021/07/20 05:53:28;;;;;;;10.13;8.73;;;;;;;28.78;36.21;96873.78;5007105;28;20033;-31
2021/07/20 05:55:55;;;;;;;10.07;8.80;;;;;;;28.79;36.09;96891.31;5003942;28;20041;-31
2021/07/20 05:58:21;;;;;;;38.50;9.45;;;;;;;28.79;36.10;96882.53;5007609;28;20030;-30
2021/07/20 06:00:51;;;;;;;13.55;8.65;;;;;;;28.79;36.07;96877.25;5006929;28;20033;-31
2021/07/20 06:03:21;;;;;;;12.82;8.13;;;;;;;28.78;36.13;96884.34;4995047;28;20026;-31
2021/07/20 06:05:51;;;;;;;14.38;9.40;;;;;;;28.78;36.29;96875.56;5009443;28;20026;-31
2021/07/20 06:08:18;;;;;;;12.25;9.30;;;;;;;28.78;36.18;96884.34;5001963;28;20030;-32
2021/07/20 06:10:57;;;;;;;11.82;8.90;;;;;;;28.78;36.26;96883.47;4998899;28;20038;-32
2021/07/20 06:13:28;;;;;;;10.80;8.93;;;;;;;28.79;36.16;96879.88;5005977;28;20858;-32
2021/07/20 06:15:53;;;;;;;13.80;8.63;;;;;;;28.78;36.18;96880.84;5004902;28;20041;-31
2021/07/20 06:18:19;;;;;;;15.75;8.48;;;;;;;28.78;36.16;96878.22;5004399;28;20026;-31
2021/07/20 06:20:52;;;;;;;17.83;8.70;;;;;;;28.79;36.26;96885.16;4987117;28;20084;-31
2021/07/20 06:23:18;;;;;;;10.50;8.32;;;;;;;28.79;36.29;96885.16;5003464;28;20033;-30
2021/07/20 06:25:43;;;;;;;11.32;8.43;;;;;;;28.79;36.26;96891.31;5004127;28;20107;-33
2021/07/20 06:28:08;;;;;;;15.02;8.57;;;;;;;28.78;36.20;96886.97;5001722;28;20575;-32
2021/07/20 06:30:34;;;;;;;10.02;8.25;;;;;;;28.78;36.36;96883.47;5003681;28;20292;-30
2021/07/20 06:32:59;;;;;;;34.75;10.52;;;;;;;28.78;36.16;96884.34;5001160;28;20041;-32
2021/07/20 06:35:25;;;;;;;28.80;10.68;;;;;;;28.77;35.43;96903.75;4996212;28;20545;-31
2021/07/20 06:37:50;;;;;;;23.00;12.23;;;;;;;28.66;34.60;96896.53;4975187;28;20117;-32
2021/07/20 06:40:16;;;;;;;26.88;11.63;;;;;;;28.51;34.35;96889.56;4996776;28;20032;-32
2021/07/20 06:42:42;;;;;;;19.42;11.68;;;;;;;28.40;34.50;96896.38;5002529;28;20030;-32
2021/07/20 06:45:08;;;;;;;25.63;12.13;;;;;;;28.27;34.69;96895.44;5002916;28;20116;-31
2021/07/20 06:47:39;;;;;;;34.53;12.63;;;;;;;28.15;34.98;96895.22;4994849;28;20064;-35
2021/07/20 06:50:06;;;;;;;33.57;12.93;;;;;;;28.02;35.04;96899.53;4998872;28;20087;-35
2021/07/20 06:52:31;;;;;;;21.80;11.98;;;;;;;27.91;35.07;96901.03;5000524;28;20291;-31
2021/07/20 06:54:57;;;;;;;23.90;11.20;;;;;;;27.81;35.18;96902.53;5002036;28;20036;-30
2021/07/20 06:57:22;;;;;;;20.08;12.45;;;;;;;27.72;35.17;96905.72;5003492;28;20123;-34
2021/07/20 06:59:47;;;;;;;21.38;11.77;;;;;;;27.61;35.38;96901.91;4993179;28;20045;-31
2021/07/20 07:02:18;;;;;;;36.38;12.10;;;;;;;27.52;35.04;96905.06;5003660;28;20040;-34
2021/07/20 07:05:13;;;;;;;23.77;11.52;;;;;;;27.41;35.67;96900.44;4999487;28;20029;-32
2021/07/20 07:07:39;;;;;;;23.25;11.00;;;;;;;27.30;35.92;96895.78;4996500;28;20052;-36
2021/07/20 07:10:05;;;;;;;17.75;11.45;;;;;;;27.29;36.25;96902.00;4988764;28;20037;-37
2021/07/20 07:12:32;;;;;;;26.15;12.05;;;;;;;27.26;36.35;96899.53;5014435;28;20052;-33
2021/07/20 07:15:09;;;;;;;18.25;11.70;;;;;;;27.26;36.35;96899.53;5002598;28;20108;-33
2021/07/20 07:17:34;;;;;;;18.88;12.43;;;;;;;27.23;36.43;96897.09;5002469;28;20052;-32
2021/07/20 07:20:00;;;;;;;21.35;11.85;;;;;;;27.20;36.41;96899.91;4984960;28;20076;-31
2021/07/20 07:22:36;;;;;;;18.38;10.68;;;;;;;27.20;36.41;96899.91;4985642;28;20691;-32
2021/07/20 07:25:02;;;;;;;22.63;10.32;;;;;;;27.17;36.81;96905.31;5002120;28;20037;-31
2021/07/20 07:27:28;;;;;;;20.00;10.88;;;;;;;27.17;36.68;96905.31;5001524;28;20072;-33
2021/07/20 07:29:53;;;;;;;20.95;10.23;;;;;;;27.17;36.81;96905.31;5005297;28;20369;-31
2021/07/20 07:32:19;;;;;;;21.50;10.68;;;;;;;27.17;36.64;96900.06;4988994;28;20029;-31
2021/07/20 07:34:45;;;;;;;19.10;10.00;;;;;;;27.17;36.64;96905.31;5000277;28;20112;-31
2021/07/20 07:37:10;;;;;;;23.95;10.30;;;;;;;27.17;36.63;96900.06;5000830;28;20480;-34
2021/07/20 07:39:35;;;;;;;21.33;9.75;;;;;;;27.15;36.65;96907.22;5006524;28;20928;-34
2021/07/20 07:42:01;;;;;;;20.20;10.05;;;;;;;27.13;36.69;96905.53;5002278;28;20069;-35
2021/07/20 07:44:27;;;;;;;19.27;9.50;;;;;;;27.13;36.57;96905.53;5003095;28;20064;-37
2021/07/20 07:46:53;;;;;;;23.05;9.55;;;;;;;27.13;36.70;96910.78;4989657;28;20026;-30
2021/07/20 07:49:19;;;;;;;21.60;9.73;;;;;;;27.12;36.59;96909.06;5004073;28;20062;-31
2021/07/20 07:51:45;;;;;;;20.23;9.18;;;;;;;27.12;36.36;96905.59;5002645;28;20026;-34
2021/07/20 07:54:13;;;;;;;17.00;9.52;;;;;;;27.12;36.40;96913.50;5018082;28;20037;-34
2021/07/20 07:56:39;;;;;;;18.83;8.95;;;;;;;27.11;36.50;96906.50;4997160;28;20960;-30
2021/07/20 07:59:05;;;;;;;17.48;9.35;;;;;;;27.11;36.63;96907.38;4989365;28;20072;-34
2021/07/20 08:01:30;;;;;;;26.10;9.88;;;;;;;27.13;36.38;96909.91;4990468;28;20438;-34
2021/07/20 08:03:56;;;;;;;23.73;8.70;;;;;;;27.15;36.46;96907.22;5007201;28;20105;-33
2021/07/20 08:06:22;;;;;;;28.13;9.32;;;;;;;27.17;36.45;96905.31;5002695;28;20057;-33
2021/07/20 08:09:50;;;;;;;21.55;8.25;;;;;;;-148.56;100.00;61375.16;5005067;28;20033;-31
2021/07/20 08:12:44;;;;;;;28.35;8.57;;;;;;;27.17;36.45;96905.31;4998435;28;20029;-35
2021/07/20 08:15:10;;;;;;;16.58;8.50;;;;;;;27.34;36.46;96907.84;4997640;28;20718;-31
2021/07/20 08:17:35;;;;;;;11.15;7.80;;;;;;;27.36;36.36;96915.63;5002193;28;20172;-35
2021/07/20 08:20:00;;;;;;;12.55;7.55;;;;;;;27.41;36.40;96907.50;4998066;28;20022;-33
2021/07/20 08:22:29;;;;;;;21.13;7.93;;;;;;;27.45;36.40;96912.47;5016447;28;20641;-30
2021/07/20 08:25:29;;;;;;;15.60;7.45;;;;;;;27.51;36.45;96911.28;4998066;28;20029;-35
2021/07/20 08:28:37;;;;;;;13.80;7.47;;;;;;;27.55;36.43;96915.44;4973649;28;20045;-33
2021/07/20 08:31:03;;;;;;;12.13;7.90;;;;;;;27.59;36.33;96911.69;4998382;28;20859;-32
2021/07/20 08:33:31;;;;;;;15.82;7.45;;;;;;;27.62;36.30;96919.41;4990228;28;20095;-32
2021/07/20 08:35:59;;;;;;;15.30;7.10;;;;;;;27.67;36.35;96915.66;5012054;28;20613;-31
2021/07/20 08:38:25;;;;;;;17.63;8.23;;;;;;;27.70;36.25;96912.84;5004881;28;20041;-34
2021/07/20 08:40:54;;;;;;;12.90;7.22;;;;;;;27.74;36.32;96919.63;5002453;28;20030;-32
2021/07/20 08:43:58;;;;;;;12.82;6.90;;;;;;;27.77;36.30;96919.47;5005029;28;20029;-37
2021/07/20 08:47:04;;;;;;;15.38;7.72;;;;;;;27.80;36.35;96919.25;4950855;28;20045;-37
2021/07/20 08:50:07;;;;;;;10.50;7.05;;;;;;;27.83;36.31;96919.09;4953754;28;20042;-32
2021/07/20 08:52:36;;;;;;;15.43;7.03;;;;;;;27.85;36.20;96911.97;5002183;28;20112;-33
2021/07/20 08:55:18;;;;;;;13.50;6.85;;;;;;;27.88;36.12;96911.75;4995502;28;20599;-31
2021/07/20 08:58:04;;;;;;;11.50;6.70;;;;;;;27.90;36.09;96909.88;5001165;28;20037;-34
2021/07/20 09:00:39;;;;;;;17.33;7.25;;;;;;;27.94;36.23;96912.31;5005846;28;20389;-34
2021/07/20 09:03:23;;;;;;;24.90;7.55;;;;;;;27.96;36.34;96913.09;4999759;28;20044;-33
2021/07/20 09:06:05;;;;;;;28.50;7.70;;;;;;;27.98;36.34;96916.47;4998289;28;20656;-32
2021/07/20 09:08:36;;;;;;;18.98;8.05;;;;;;;28.00;36.52;96914.59;5000938;28;20029;-35
2021/07/20 09:11:31;;;;;;;21.40;8.77;;;;;;;28.02;36.34;96912.69;4999482;28;20104;-33
2021/07/20 09:14:29;;;;;;;28.85;9.35;;;;;;;28.05;36.36;96909.91;5009135;28;20395;-31
2021/07/20 09:17:12;;;;;;;31.17;9.75;;;;;;;28.06;36.38;96908.94;4988145;28;20080;-34
2021/07/20 09:19:55;;;;;;;30.38;9.68;;;;;;;28.07;36.41;96905.38;5008244;28;20113;-34
2021/07/20 09:22:39;;;;;;;28.05;9.18;;;;;;;28.08;36.50;96907.09;5000664;28;20027;-33
2021/07/20 09:25:08;;;;;;;31.33;9.32;;;;;;;28.12;36.34;96913.00;4992402;28;20133;-31
2021/07/20 09:27:53;;;;;;;25.67;9.35;;;;;;;28.12;36.48;96911.22;5006938;28;20496;-32
2021/07/20 09:30:26;;;;;;;22.45;8.63;;;;;;;28.13;36.34;96907.66;5013718;28;20030;-32
2021/07/20 09:33:39;;;;;;;21.30;8.95;;;;;;;28.15;36.63;96913.66;5003433;28;20654;-32
2021/07/20 09:36:19;;;;;;;19.15;8.05;;;;;;;28.17;36.50;96911.78;4950152;28;20049;-34
2021/07/20 09:39:04;;;;;;;22.00;8.43;;;;;;;28.18;36.32;96916.09;5006243;28;20084;-31
2021/07/20 09:41:52;;;;;;;17.25;7.80;;;;;;;28.20;36.54;96909.88;5007353;28;20093;-32
2021/07/20 09:44:23;;;;;;;21.83;7.95;;;;;;;28.22;36.50;96898.31;5008105;28;20112;-31
2021/07/20 09:46:57;;;;;;;17.70;7.30;;;;;;;28.22;36.50;96898.31;5008051;28;20084;-31
2021/07/20 09:49:37;;;;;;;17.77;8.02;;;;;;;28.24;36.28;96908.75;5008302;28;20472;-30
2021/07/20 09:52:21;;;;;;;15.02;7.43;;;;;;;28.25;36.50;96903.44;5003169;28;20120;-33
2021/07/20 09:55:17;;;;;;;18.20;7.88;;;;;;;28.26;36.63;96902.47;5008646;28;20045;-30
2021/07/20 09:57:54;;;;;;;17.48;7.30;;;;;;;28.27;36.61;96901.53;5008111;28;20078;-34
2021/07/20 10:00:23;;;;;;;14.30;6.90;;;;;;;28.29;36.50;96899.66;5009142;28;20095;-31
2021/07/20 10:03:02;;;;;;;21.73;7.10;;;;;;;28.30;36.61;96904.00;5002396;28;20032;-34
2021/07/20 10:05:38;;;;;;;18.60;6.97;;;;;;;28.30;36.40;96900.53;5006045;28;20564;-38
2021/07/20 10:08:10;;;;;;;14.55;6.80;;;;;;;28.33;36.43;96905.59;4993726;28;20076;-37
2021/07/20 10:10:44;;;;;;;13.57;6.55;;;;;;;28.35;36.60;96897.59;5004231;28;20036;-34
2021/07/20 10:13:20;;;;;;;13.23;6.55;;;;;;;28.36;36.69;96902.78;5013315;28;20042;-29
2021/07/20 10:15:55;;;;;;;12.25;6.22;;;;;;;28.38;36.63;96892.97;5011380;28;20702;-33
2021/07/20 10:18:50;;;;;;;13.73;6.60;;;;;;;28.39;36.60;96899.09;5004855;28;20028;-31
2021/07/20 10:21:18;;;;;;;15.82;6.55;;;;;;;28.39;36.44;96897.31;5007664;28;20033;-32
2021/07/20 10:23:54;;;;;;;16.85;7.07;;;;;;;28.40;36.36;96896.38;5011647;28;20040;-33
2021/07/20 10:26:26;;;;;;;15.88;7.07;;;;;;;28.41;36.61;96895.41;5011953;28;20129;-30
2021/07/20 10:28:55;;;;;;;10.70;5.93;;;;;;;28.42;36.54;96899.75;4997778;28;20671;-32
2021/07/20 10:31:24;;;;;;;13.95;6.10;;;;;;;28.45;36.67;96897.88;5007743;28;20115;-33
2021/07/20 10:34:03;;;;;;;10.02;6.25;;;;;;;28.46;36.51;96899.56;5003474;28;20022;-33
2021/07/20 10:37:19;;;;;;;10.85;6.28;;;;;;;28.46;36.49;96889.88;4996039;28;20109;-30
2021/07/20 10:39:51;;;;;;;10.55;6.07;;;;;;;28.48;36.58;96889.75;5006425;28;20084;-32
2021/07/20 10:42:22;;;;;;;11.85;6.05;;;;;;;28.48;36.74;96887.97;5017555;28;20376;-32
2021/07/20 10:44:52;;;;;;;10.45;5.97;;;;;;;28.50;36.58;96890.50;5012000;28;20025;-31
2021/07/20 10:47:17;;;;;;;10.02;5.72;;;;;;;28.51;36.80;96892.19;5019284;28;20601;-31
2021/07/20 10:49:53;;;;;;;11.25;6.20;;;;;;;28.52;36.56;96885.97;5000588;28;20076;-31
2021/07/20 10:52:21;;;;;;;11.45;6.03;;;;;;;28.52;36.74;96894.75;5007048;28;20422;-31
2021/07/20 10:55:00;;;;;;;11.20;6.07;;;;;;;28.54;36.67;96892.03;5010438;28;20034;-31
2021/07/20 10:57:33;;;;;;;11.35;5.82;;;;;;;28.55;36.49;96904.25;5011914;28;20021;-32
2021/07/20 11:00:13;;;;;;;10.60;5.72;;;;;;;28.56;36.58;96901.53;4991191;28;20296;-32
2021/07/20 11:02:58;;;;;;;10.45;5.95;;;;;;;28.56;36.58;96901.53;5001928;28;20104;-31
2021/07/20 11:05:23;;;;;;;11.60;6.35;;;;;;;28.58;36.58;96904.06;5010364;28;20037;-34
2021/07/20 11:07:52;;;;;;;9.93;5.95;;;;;;;28.58;36.60;96898.78;4994885;28;20041;-33
2021/07/20 11:10:22;;;;;;;10.20;5.65;;;;;;;28.59;36.56;96894.34;5008494;28;20032;-32
2021/07/20 11:12:51;;;;;;;7.03;5.05;;;;;;;28.64;36.80;96893.13;5009997;28;20723;-32
2021/07/20 11:16:15;;;;;;;10.73;6.10;;;;;;;-148.56;100.00;61375.16;5000960;28;20037;-31
2021/07/20 11:19:39;;;;;;;9.18;5.55;;;;;;;-148.56;100.00;61375.16;5010679;28;20033;-32
2021/07/20 11:23:04;;;;;;;7.07;5.15;;;;;;;-148.56;100.00;61375.16;5003159;28;20037;-36
2021/07/20 11:26:28;;;;;;;8.68;5.68;;;;;;;-148.56;100.00;61375.16;5010053;28;20037;-31
2021/07/20 11:28:55;;;;;;;10.70;5.50;;;;;;;28.64;36.80;96893.13;5018486;28;20029;-33
2021/07/20 11:31:32;;;;;;;10.43;5.75;;;;;;;28.68;36.82;96883.25;5006245;28;20034;-32
2021/07/20 11:34:04;;;;;;;8.55;5.60;;;;;;;28.66;36.94;96883.34;5009466;28;20527;-33
2021/07/20 11:36:36;;;;;;;12.35;5.78;;;;;;;28.66;36.89;96885.97;5009531;28;20037;-32
2021/07/20 11:39:02;;;;;;;9.43;5.72;;;;;;;28.67;36.90;96885.03;5010857;28;20025;-32
2021/07/20 11:41:27;;;;;;;9.98;5.95;;;;;;;28.67;36.81;96892.06;5004825;28;20041;-32
2021/07/20 11:44:25;;;;;;;8.45;6.03;;;;;;;28.67;36.73;96887.66;5003070;28;20053;-31
2021/07/20 11:47:14;;;;;;;9.32;6.07;;;;;;;28.69;36.74;96885.75;5015796;28;20033;-33
2021/07/20 11:50:20;;;;;;;10.88;5.22;;;;;;;28.69;36.83;96879.66;5003314;28;20866;-31
2021/07/20 11:53:02;;;;;;;7.68;5.60;;;;;;;28.69;36.76;96882.28;4932258;28;20031;-32
2021/07/20 11:56:00;;;;;;;12.20;5.45;;;;;;;28.69;37.03;96875.22;4926374;28;20034;-32
2021/07/20 11:59:03;;;;;;;12.63;5.75;;;;;;;28.71;37.03;96876.94;4993410;28;20033;-31
2021/07/20 12:02:09;;;;;;;8.15;5.32;;;;;;;28.71;37.05;96876.94;5005641;28;20037;-35
2021/07/20 12:04:57;;;;;;;8.32;5.70;;;;;;;28.71;37.04;96871.66;4974848;28;20574;-33
2021/07/20 12:07:32;;;;;;;9.38;5.60;;;;;;;28.72;36.92;96862.78;5004691;28;20095;-32
2021/07/20 12:10:33;;;;;;;7.88;5.40;;;;;;;28.72;37.04;96875.97;5005684;28;20030;-33
2021/07/20 12:13:03;;;;;;;12.10;5.50;;;;;;;28.73;37.15;96864.47;4943716;28;20039;-32
2021/07/20 12:15:28;;;;;;;8.63;5.80;;;;;;;28.73;37.26;96864.47;4994851;28;20389;-33
2021/07/20 12:17:54;;;;;;;9.55;6.22;;;;;;;28.74;37.21;96866.16;5009925;28;20090;-32
2021/07/20 12:20:32;;;;;;;9.90;6.53;;;;;;;28.74;37.21;96866.16;5005835;28;20060;-32
2021/07/20 12:23:10;;;;;;;8.85;5.55;;;;;;;28.74;37.21;96866.16;5008430;28;20026;-32
2021/07/20 12:25:36;;;;;;;8.02;5.25;;;;;;;28.76;36.92;96865.13;5006939;28;20159;-31
2021/07/20 12:28:02;;;;;;;12.45;4.95;;;;;;;28.76;36.93;96862.47;5005638;28;20834;-31
2021/07/20 12:30:28;;;;;;;10.38;5.47;;;;;;;28.77;37.00;96858.06;5005818;28;20040;-33
2021/07/20 12:32:54;;;;;;;9.95;6.18;;;;;;;28.77;36.98;96861.56;5006065;28;20030;-35
2021/07/20 12:35:20;;;;;;;10.07;5.80;;;;;;;28.79;36.92;96858.78;5007507;28;20070;-34
2021/07/20 12:38:08;;;;;;;8.90;6.10;;;;;;;28.79;37.04;96858.78;5006470;28;20028;-31
2021/07/20 12:40:34;;;;;;;10.57;6.03;;;;;;;28.79;36.88;96862.28;5004120;28;20029;-32
2021/07/20 12:43:13;;;;;;;11.50;7.85;;;;;;;28.81;37.00;96862.19;5008039;28;20033;-31
2021/07/20 12:45:43;;;;;;;12.93;7.10;;;;;;;28.80;36.83;96860.50;5009582;28;20029;-33
2021/07/20 12:48:28;;;;;;;10.32;6.22;;;;;;;28.81;36.96;96864.84;5007965;28;20087;-32
2021/07/20 12:50:54;;;;;;;12.52;9.13;;;;;;;28.82;36.41;96863.88;5003391;28;20060;-30
2021/07/20 12:53:20;;;;;;;14.40;9.45;;;;;;;28.81;35.89;96860.41;5002535;28;20125;-34
2021/07/20 12:55:46;;;;;;;12.95;8.82;;;;;;;28.82;35.93;96858.59;5008988;28;20033;-32
2021/07/20 12:58:13;;;;;;;10.43;7.35;;;;;;;28.80;35.88;96856.06;5007351;28;20029;-36
2021/07/20 13:00:38;;;;;;;12.40;6.88;;;;;;;28.81;35.98;96862.19;4987839;28;20112;-31
2021/07/20 13:03:05;;;;;;;10.35;8.25;;;;;;;28.81;36.08;96856.91;5006128;28;20033;-31
2021/07/20 13:05:31;;;;;;;11.65;8.48;;;;;;;28.80;35.96;96853.44;5000731;28;20091;-28
2021/07/20 13:07:58;;;;;;;18.27;9.30;;;;;;;28.81;35.56;96862.19;4999956;28;20381;-30
2021/07/20 13:10:23;;;;;;;12.27;8.20;;;;;;;28.82;35.58;96861.25;5022825;28;20171;-32
2021/07/20 13:12:49;;;;;;;16.05;10.02;;;;;;;28.81;35.44;96852.50;5007353;28;20680;-33
2021/07/20 13:15:20;;;;;;;16.88;9.68;;;;;;;28.82;35.05;96862.09;4999733;28;20033;-34
2021/07/20 13:17:49;;;;;;;12.90;8.30;;;;;;;28.83;35.12;96870.84;5005398;28;20021;-31
2021/07/20 13:20:14;;;;;;;13.02;8.25;;;;;;;28.84;35.42;96856.72;5008597;28;20022;-31
2021/07/20 13:22:40;;;;;;;12.43;7.78;;;;;;;28.83;35.56;96855.00;5001365;28;20033;-39
2021/07/20 13:25:09;;;;;;;13.93;9.00;;;;;;;28.83;35.60;96858.50;5004369;28;20021;-33
2021/07/20 13:27:39;;;;;;;12.32;8.77;;;;;;;28.84;35.85;96862.00;5006380;28;20079;-32
2021/07/20 13:30:09;;;;;;;24.88;14.00;;;;;;;28.85;35.92;96860.19;5005262;28;20057;-32
2021/07/20 13:32:35;;;;;;;36.67;16.67;;;;;;;28.85;35.54;96866.31;5018009;28;20075;-31
2021/07/20 13:35:05;;;;;;;31.52;18.10;;;;;;;28.86;35.74;96859.25;5001916;28;20259;-31
2021/07/20 13:37:32;;;;;;;24.98;16.48;;;;;;;28.85;35.38;96863.69;5007704;28;20034;-32
2021/07/20 13:39:58;;;;;;;27.48;16.65;;;;;;;28.86;35.45;96868.00;4995125;28;20173;-32
2021/07/20 13:42:23;;;;;;;26.63;15.40;;;;;;;28.86;35.02;96865.38;4987621;28;20041;-33
2021/07/20 13:44:49;;;;;;;23.58;15.00;;;;;;;28.86;34.84;96861.88;5003536;28;20025;-33
2021/07/20 13:47:14;;;;;;;24.80;14.30;;;;;;;28.85;34.61;96863.69;5022531;28;20026;-32
2021/07/20 13:49:40;;;;;;;24.73;14.48;;;;;;;28.85;34.74;96858.41;4988327;28;20057;-33
2021/07/20 13:52:05;;;;;;;23.67;14.02;;;;;;;28.86;34.68;96846.91;4989505;28;20040;-32
2021/07/20 13:54:35;;;;;;;22.20;13.18;;;;;;;28.86;34.07;96859.25;5006964;28;20104;-31
2021/07/20 13:57:00;;;;;;;24.65;13.52;;;;;;;28.85;34.18;96863.69;5000784;28;20035;-32
2021/07/20 13:59:29;;;;;;;20.25;12.52;;;;;;;28.86;34.30;96853.97;4984141;28;20033;-36
2021/07/20 14:01:55;;;;;;;22.30;12.98;;;;;;;28.86;34.49;96860.09;4989156;28;20022;-34
2021/07/20 14:04:20;;;;;;;16.98;12.35;;;;;;;28.85;34.56;96868.97;5004323;28;20033;-32
2021/07/20 14:06:46;;;;;;;17.98;11.93;;;;;;;28.85;34.41;96855.78;5003780;28;20140;-31
2021/07/20 14:09:12;;;;;;;16.95;11.93;;;;;;;28.86;34.50;96857.47;4990951;28;20079;-32
2021/07/20 14:11:41;;;;;;;23.50;12.48;;;;;;;28.87;34.33;96848.59;5008165;28;20029;-30
2021/07/20 14:14:07;;;;;;;19.10;12.05;;;;;;;28.86;34.29;96839.00;5004839;28;20033;-29
2021/07/20 14:16:33;;;;;;;18.90;11.73;;;;;;;28.87;34.44;96850.41;5001432;28;20107;-33
2021/07/20 14:18:58;;;;;;;18.23;11.27;;;;;;;28.86;34.04;96846.91;5001735;28;21305;-32
2021/07/20 14:21:29;;;;;;;21.55;11.75;;;;;;;28.87;34.16;96840.69;4983129;28;20087;-32
2021/07/20 14:24:02;;;;;;;16.40;10.70;;;;;;;28.87;34.24;96845.97;5001602;28;20084;-35
2021/07/20 14:26:27;;;;;;;15.18;10.73;;;;;;;28.88;34.34;96849.44;5004916;28;20029;-32
2021/07/20 14:28:54;;;;;;;17.40;10.52;;;;;;;28.87;34.75;96845.97;5005380;28;20059;-33
2021/07/20 14:31:19;;;;;;;16.92;11.68;;;;;;;28.87;34.84;96840.69;5005946;28;20026;-36
2021/07/20 14:33:45;;;;;;;17.98;11.15;;;;;;;28.89;34.81;96849.38;5005346;28;20417;-33
2021/07/20 14:36:43;;;;;;;16.60;10.98;;;;;;;28.91;35.10;96847.47;5004165;28;20033;-31